Time;durP1;ratioP1;P1;durP2;ratioP2;P2;SDS_P1;SDS_P2;PMS_P1;PMS_P2;Temp;Humidity;BMP_temperature;BMP_pressure;BME280_temperature;BME280_humidity;BME280_pressure;Samples;Min_cycle;Max_cycle;Signal;HPM_P1;HPM_P2
2023/07/11 00:00:03;;;;;;;4.90;1.80;;;20.10;98.70;;;;;;5050128;28;20040;-70
2023/07/11 00:02:29;;;;;;;4.03;1.85;;;20.10;98.70;;;;;;5050072;28;20021;-70
2023/07/11 00:04:56;;;;;;;5.75;1.90;;;20.20;98.60;;;;;;5050432;28;20107;-71
2023/07/11 00:07:22;;;;;;;4.60;1.92;;;20.10;98.80;;;;;;5050019;28;20463;-70
2023/07/11 00:09:48;;;;;;;9.27;2.20;;;20.00;98.90;;;;;;5049910;28;20045;-69
2023/07/11 00:12:15;;;;;;;6.03;1.88;;;20.00;99.00;;;;;;5050114;28;20116;-70
2023/07/11 00:14:41;;;;;;;9.52;2.15;;;19.90;99.10;;;;;;5049970;28;20113;-70
2023/07/11 00:17:06;;;;;;;3.70;2.05;;;19.90;99.20;;;;;;5050436;28;20029;-71
2023/07/11 00:19:53;;;;;;;3.38;1.73;;;19.90;99.20;;;;;;5050270;28;20236;-71
2023/07/11 00:22:19;;;;;;;3.20;2.00;;;19.90;99.20;;;;;;5049863;28;20033;-70
2023/07/11 00:24:47;;;;;;;4.97;1.85;;;19.90;99.40;;;;;;5049724;28;20029;-70
2023/07/11 00:27:13;;;;;;;4.57;2.10;;;19.90;99.50;;;;;;5050062;28;20110;-71
2023/07/11 00:29:39;;;;;;;5.57;2.40;;;19.80;99.60;;;;;;5048689;28;20098;-71
2023/07/11 00:32:05;;;;;;;2.83;1.63;;;19.70;99.80;;;;;;5050229;28;20495;-70
2023/07/11 00:34:31;;;;;;;7.45;2.22;;;19.70;99.60;;;;;;5048447;28;20061;-72
2023/07/11 00:36:57;;;;;;;5.65;2.70;;;19.80;99.70;;;;;;5052299;28;20407;-71
2023/07/11 00:39:23;;;;;;;5.18;2.17;;;19.60;99.90;;;;;;5053654;28;20083;-70
2023/07/11 00:41:49;;;;;;;4.72;1.67;;;19.60;99.80;;;;;;5052389;28;20059;-71
2023/07/11 00:44:16;;;;;;;5.07;2.15;;;19.60;99.90;;;;;;5053962;28;20056;-71
2023/07/11 00:46:43;;;;;;;4.78;2.17;;;19.60;99.90;;;;;;5053592;28;20029;-71
2023/07/11 00:49:17;;;;;;;3.33;2.03;;;19.60;99.90;;;;;;5053358;28;20037;-69
2023/07/11 00:51:53;;;;;;;3.35;1.85;;;19.50;99.90;;;;;;5053364;28;20036;-71
2023/07/11 00:54:23;;;;;;;5.95;2.17;;;19.60;99.90;;;;;;5053355;28;20025;-71
2023/07/11 00:56:49;;;;;;;4.32;1.88;;;19.60;99.90;;;;;;5053316;28;20052;-71
2023/07/11 00:59:17;;;;;;;4.57;2.25;;;19.50;99.90;;;;;;5053915;28;20360;-71
2023/07/11 01:01:50;;;;;;;4.20;1.83;;;19.50;99.90;;;;;;5053221;28;20435;-71
2023/07/11 01:04:19;;;;;;;4.00;1.60;;;19.50;99.90;;;;;;5085568;28;20094;-70
2023/07/11 01:06:46;;;;;;;7.00;2.33;;;19.60;99.90;;;;;;5053397;28;20040;-70
2023/07/11 01:09:12;;;;;;;3.72;1.65;;;19.50;99.90;;;;;;5052016;28;20383;-71
2023/07/11 01:11:56;;;;;;;6.75;2.22;;;19.50;99.90;;;;;;5053368;28;20036;-70
2023/07/11 01:14:24;;;;;;;3.30;1.80;;;19.50;99.90;;;;;;5052297;28;20021;-71
2023/07/11 01:16:50;;;;;;;5.10;2.05;;;19.60;99.70;;;;;;5053409;28;20068;-71
2023/07/11 01:19:15;;;;;;;6.63;2.10;;;19.50;99.90;;;;;;5051819;28;20032;-70
2023/07/11 01:21:41;;;;;;;2.50;1.83;;;19.50;99.90;;;;;;5052993;28;20029;-71
2023/07/11 01:24:07;;;;;;;7.13;2.35;;;19.50;99.90;;;;;;5052924;28;20351;-71
2023/07/11 01:26:33;;;;;;;3.15;1.60;;;19.50;99.90;;;;;;5052873;28;20078;-71
2023/07/11 01:28:58;;;;;;;5.20;1.98;;;19.50;99.90;;;;;;5051874;28;20029;-71
2023/07/11 01:31:24;;;;;;;3.88;1.80;;;19.50;99.90;;;;;;5052967;28;20167;-72
2023/07/11 01:33:50;;;;;;;8.70;2.33;;;19.50;99.90;;;;;;5052498;28;20048;-72
2023/07/11 01:36:15;;;;;;;5.90;2.00;;;19.30;99.90;;;;;;5064572;28;20036;-72
2023/07/11 01:38:41;;;;;;;5.75;2.38;;;19.30;99.90;;;;;;5072335;28;20047;-71
2023/07/11 01:41:07;;;;;;;5.40;1.90;;;19.30;99.90;;;;;;5072854;28;20100;-70
2023/07/11 01:43:33;;;;;;;5.32;2.28;;;19.30;99.90;;;;;;5071428;28;20336;-71
2023/07/11 01:45:58;;;;;;;4.25;1.90;;;19.30;99.90;;;;;;5072421;28;20025;-70
2023/07/11 01:48:24;;;;;;;10.85;2.25;;;19.30;99.90;;;;;;5071226;28;20543;-71
2023/07/11 01:50:51;;;;;;;4.00;2.10;;;19.30;99.90;;;;;;5072259;28;20035;-71
2023/07/11 01:53:17;;;;;;;5.95;2.65;;;19.30;99.90;;;;;;5073037;28;20108;-71
2023/07/11 01:55:42;;;;;;;7.07;2.28;;;19.40;99.90;;;;;;5072361;28;20335;-71
2023/07/11 01:58:08;;;;;;;4.30;2.25;;;19.30;99.90;;;;;;5071219;28;20029;-71
2023/07/11 02:00:34;;;;;;;8.43;2.25;;;19.30;99.90;;;;;;5072068;28;20098;-71
2023/07/11 02:03:01;;;;;;;5.32;2.20;;;19.30;99.90;;;;;;5070953;28;20094;-71
2023/07/11 02:05:26;;;;;;;4.85;2.00;;;19.30;99.90;;;;;;5071065;28;20322;-72
2023/07/11 02:07:52;;;;;;;7.40;2.28;;;19.30;99.90;;;;;;5072471;28;20023;-70
2023/07/11 02:10:18;;;;;;;7.57;2.47;;;19.30;99.90;;;;;;5071867;28;20037;-70
2023/07/11 02:12:44;;;;;;;8.43;2.13;;;19.30;99.90;;;;;;5072024;28;20115;-71
2023/07/11 02:15:11;;;;;;;4.93;2.08;;;19.30;99.90;;;;;;5072048;28;20332;-71
2023/07/11 02:17:37;;;;;;;4.85;1.98;;;19.30;99.90;;;;;;5071779;28;20324;-69
2023/07/11 02:20:03;;;;;;;6.18;1.98;;;19.30;99.90;;;;;;5072683;28;20035;-71
2023/07/11 02:22:29;;;;;;;4.72;1.80;;;19.30;99.90;;;;;;5071866;28;20055;-71
2023/07/11 02:24:55;;;;;;;7.50;2.20;;;19.20;99.90;;;;;;5071412;28;20462;-71
2023/07/11 02:27:20;;;;;;;6.00;1.92;;;19.20;99.90;;;;;;5071636;28;20021;-70
2023/07/11 02:29:46;;;;;;;4.25;2.33;;;19.20;99.90;;;;;;5071515;28;20102;-71
2023/07/11 02:32:11;;;;;;;2.85;1.65;;;19.20;99.90;;;;;;5071009;28;20033;-69
2023/07/11 02:34:37;;;;;;;5.35;1.92;;;19.20;99.90;;;;;;5071204;28;20110;-70
2023/07/11 02:37:03;;;;;;;3.50;1.83;;;19.10;99.90;;;;;;5071457;28;20188;-70
2023/07/11 02:39:29;;;;;;;5.00;1.80;;;19.10;99.90;;;;;;5071482;28;20032;-70
2023/07/11 02:41:55;;;;;;;10.32;2.15;;;19.20;99.90;;;;;;5071361;28;20324;-71
2023/07/11 02:44:20;;;;;;;5.07;2.05;;;19.10;99.90;;;;;;5071700;28;20044;-71
2023/07/11 02:46:46;;;;;;;6.78;1.98;;;19.10;99.90;;;;;;5071288;28;20093;-70
2023/07/11 02:49:12;;;;;;;4.57;1.88;;;19.10;99.90;;;;;;5071202;28;20182;-71
2023/07/11 02:51:39;;;;;;;8.05;1.95;;;19.00;99.90;;;;;;5071314;28;20040;-70
2023/07/11 02:54:05;;;;;;;4.95;2.15;;;18.90;99.90;;;;;;5071108;28;20450;-70
2023/07/11 02:56:31;;;;;;;7.78;2.10;;;18.90;99.90;;;;;;5071447;28;20350;-71
2023/07/11 02:59:00;;;;;;;5.95;2.05;;;18.90;99.90;;;;;;5071199;28;20035;-71
2023/07/11 03:01:30;;;;;;;8.70;2.30;;;18.90;99.90;;;;;;5071190;28;20256;-70
2023/07/11 03:03:56;;;;;;;6.32;2.40;;;18.90;99.90;;;;;;5070877;28;20105;-72
2023/07/11 03:06:21;;;;;;;4.80;2.20;;;18.90;99.90;;;;;;5071002;28;20032;-71
2023/07/11 03:08:47;;;;;;;8.60;2.20;;;18.80;99.90;;;;;;5070737;28;20032;-71
2023/07/11 03:11:13;;;;;;;4.82;1.85;;;18.90;99.90;;;;;;5071736;28;20465;-69
2023/07/11 03:13:38;;;;;;;5.03;2.17;;;18.80;99.90;;;;;;5070881;28;20056;-71
2023/07/11 03:16:05;;;;;;;5.70;2.58;;;18.80;99.90;;;;;;5071038;28;20350;-70
2023/07/11 03:18:32;;;;;;;5.65;2.50;;;18.80;99.90;;;;;;5070858;28;20090;-69
2023/07/11 03:20:59;;;;;;;6.43;2.17;;;18.80;99.90;;;;;;5070649;28;20024;-72
2023/07/11 03:23:25;;;;;;;5.88;2.42;;;18.90;99.90;;;;;;5070607;28;20039;-71
2023/07/11 03:25:52;;;;;;;5.63;2.55;;;18.80;99.90;;;;;;5071280;28;20020;-71
2023/07/11 03:28:18;;;;;;;3.60;2.15;;;18.80;99.90;;;;;;5070518;28;20056;-71
2023/07/11 03:30:43;;;;;;;6.35;2.28;;;18.80;99.90;;;;;;5070456;28;20053;-70
2023/07/11 03:33:09;;;;;;;2.70;1.90;;;18.80;99.90;;;;;;5070193;28;20048;-71
2023/07/11 03:35:34;;;;;;;6.80;1.80;;;18.70;99.90;;;;;;5070388;28;20032;-72
2023/07/11 03:38:00;;;;;;;3.92;2.08;;;18.70;99.90;;;;;;5070867;28;20039;-71
2023/07/11 03:40:26;;;;;;;7.57;2.33;;;18.70;99.90;;;;;;5070373;28;20059;-70
2023/07/11 03:42:52;;;;;;;8.15;2.58;;;18.70;99.90;;;;;;5070238;28;20459;-71
2023/07/11 03:45:18;;;;;;;6.97;2.30;;;18.70;99.90;;;;;;5070299;28;20032;-70
2023/07/11 03:47:43;;;;;;;8.05;2.50;;;18.60;99.90;;;;;;5070281;28;20028;-72
2023/07/11 03:50:09;;;;;;;5.38;2.40;;;18.60;99.90;;;;;;5070594;28;20354;-71
2023/07/11 03:52:35;;;;;;;12.40;2.45;;;18.60;99.90;;;;;;5070277;28;20112;-72
2023/07/11 03:55:01;;;;;;;6.95;2.28;;;18.60;99.90;;;;;;5070188;28;20373;-72
2023/07/11 03:57:26;;;;;;;4.50;2.25;;;18.50;99.90;;;;;;5070099;28;20093;-71
2023/07/11 03:59:52;;;;;;;7.05;2.22;;;18.50;99.90;;;;;;5070084;28;20040;-71
2023/07/11 04:02:18;;;;;;;5.05;2.28;;;18.60;99.90;;;;;;5070693;28;20025;-71
2023/07/11 04:04:43;;;;;;;4.43;2.47;;;18.50;99.90;;;;;;5069047;28;20037;-71
2023/07/11 04:07:09;;;;;;;7.32;2.10;;;18.60;99.90;;;;;;5070054;28;20024;-70
2023/07/11 04:09:35;;;;;;;4.88;2.08;;;18.60;99.90;;;;;;5069946;28;20092;-70
2023/07/11 04:12:01;;;;;;;5.75;1.95;;;18.50;99.90;;;;;;5073069;28;20089;-70
2023/07/11 04:14:26;;;;;;;6.40;2.28;;;18.50;99.90;;;;;;5073005;28;20024;-71
2023/07/11 04:16:52;;;;;;;5.75;2.05;;;18.50;99.90;;;;;;5073295;28;20024;-71
2023/07/11 04:19:17;;;;;;;3.60;2.10;;;18.50;99.90;;;;;;5074069;28;20025;-71
2023/07/11 04:21:43;;;;;;;9.27;2.53;;;18.50;99.90;;;;;;5074332;28;20111;-69
2023/07/11 04:24:09;;;;;;;4.88;2.17;;;18.50;99.90;;;;;;5073898;28;20028;-71
2023/07/11 04:26:34;;;;;;;4.95;2.28;;;18.50;99.90;;;;;;5074005;28;20092;-71
2023/07/11 04:29:00;;;;;;;6.05;2.42;;;18.50;99.90;;;;;;5074426;28;20107;-71
2023/07/11 04:31:26;;;;;;;3.10;1.75;;;18.50;99.90;;;;;;5074002;28;20043;-70
2023/07/11 04:33:52;;;;;;;6.03;1.95;;;18.50;99.90;;;;;;5072601;28;20463;-70
2023/07/11 04:36:18;;;;;;;4.32;2.08;;;18.50;99.90;;;;;;5073840;28;20145;-70
2023/07/11 04:38:44;;;;;;;5.53;2.47;;;18.50;99.90;;;;;;5073808;28;20109;-70
2023/07/11 04:41:10;;;;;;;7.32;2.45;;;18.60;99.90;;;;;;5074196;28;20028;-70
2023/07/11 04:43:36;;;;;;;7.40;2.38;;;18.60;99.90;;;;;;5073694;28;20477;-71
2023/07/11 04:46:03;;;;;;;9.63;2.33;;;18.60;99.90;;;;;;5073628;28;20024;-72
2023/07/11 04:48:30;;;;;;;8.25;2.47;;;18.60;99.90;;;;;;5073735;28;20033;-72
2023/07/11 04:50:57;;;;;;;8.18;2.10;;;18.70;99.90;;;;;;5073557;28;20029;-71
2023/07/11 04:53:23;;;;;;;5.10;2.42;;;18.70;99.90;;;;;;5072394;28;20361;-70
2023/07/11 04:55:55;;;;;;;7.55;2.63;;;18.70;99.90;;;;;;5074078;28;20221;-71
2023/07/11 04:58:21;;;;;;;8.48;2.10;;;18.70;99.90;;;;;;5073626;28;20087;-69
2023/07/11 05:00:47;;;;;;;4.28;2.22;;;18.70;99.90;;;;;;5073297;28;20036;-70
2023/07/11 05:03:12;;;;;;;7.35;2.33;;;18.70;99.90;;;;;;5073307;28;20035;-70
2023/07/11 05:05:38;;;;;;;6.97;1.88;;;18.70;99.90;;;;;;5072987;28;20033;-70
2023/07/11 05:08:04;;;;;;;4.25;2.03;;;18.70;99.90;;;;;;5072623;28;20025;-70
2023/07/11 05:10:30;;;;;;;7.28;2.45;;;18.80;99.90;;;;;;5072939;28;20039;-70
2023/07/11 05:12:56;;;;;;;9.25;2.50;;;18.90;99.90;;;;;;5073450;28;20124;-70
2023/07/11 05:15:22;;;;;;;4.93;2.67;;;18.90;99.90;;;;;;5073159;28;20039;-70
2023/07/11 05:17:47;;;;;;;5.97;2.10;;;18.90;99.90;;;;;;5073295;28;20040;-71
2023/07/11 05:20:13;;;;;;;3.95;2.20;;;19.00;99.90;;;;;;5052291;28;20029;-71
2023/07/11 05:22:39;;;;;;;8.05;2.50;;;19.00;99.90;;;;;;5031439;28;20116;-70
2023/07/11 05:25:05;;;;;;;6.40;2.75;;;19.10;99.90;;;;;;5032907;28;20033;-70
2023/07/11 05:27:31;;;;;;;5.68;2.10;;;19.20;99.90;;;;;;5032799;28;20029;-70
2023/07/11 05:29:57;;;;;;;6.63;2.50;;;19.20;99.90;;;;;;5048262;28;20044;-70
2023/07/11 05:32:22;;;;;;;5.53;2.22;;;19.30;99.90;;;;;;5033578;28;20088;-70
2023/07/11 05:34:48;;;;;;;7.22;2.15;;;19.40;99.90;;;;;;5032595;28;20129;-70
2023/07/11 05:37:14;;;;;;;4.90;2.35;;;19.40;99.90;;;;;;5032836;28;20053;-71
2023/07/11 05:39:39;;;;;;;6.07;2.10;;;19.50;99.90;;;;;;5032612;28;20037;-70
2023/07/11 05:42:05;;;;;;;8.27;2.35;;;19.60;99.90;;;;;;5032974;28;20029;-70
2023/07/11 05:44:31;;;;;;;6.05;1.95;;;19.60;99.90;;;;;;5032877;28;20068;-70
2023/07/11 05:46:57;;;;;;;4.65;2.30;;;19.70;99.90;;;;;;5031715;28;20052;-70
2023/07/11 05:49:22;;;;;;;3.95;2.17;;;19.70;99.90;;;;;;5032543;28;20036;-70
2023/07/11 05:51:49;;;;;;;4.90;2.22;;;19.80;99.90;;;;;;5031138;28;20033;-69
2023/07/11 05:54:15;;;;;;;11.88;5.05;;;19.90;99.90;;;;;;5032326;28;20021;-70
2023/07/11 05:56:41;;;;;;;8.38;3.38;;;20.00;99.90;;;;;;5032178;28;20407;-70
2023/07/11 05:59:07;;;;;;;8.05;4.10;;;20.10;99.90;;;;;;5032523;28;20328;-71
2023/07/11 06:01:33;;;;;;;7.32;2.30;;;20.20;99.90;;;;;;5032223;28;20040;-68
2023/07/11 06:04:09;;;;;;;5.10;1.85;;;20.20;99.90;;;;;;5032201;28;20041;-69
2023/07/11 06:06:41;;;;;;;12.80;7.63;;;20.40;99.90;;;;;;5032232;28;20029;-69
2023/07/11 06:09:08;;;;;;;9.00;2.97;;;20.50;99.90;;;;;;5031939;28;20042;-69
2023/07/11 06:11:34;;;;;;;8.63;2.80;;;20.50;99.90;;;;;;5032034;28;20036;-70
2023/07/11 06:13:59;;;;;;;7.18;2.60;;;20.60;99.90;;;;;;5047688;28;20025;-69
2023/07/11 06:16:25;;;;;;;10.15;2.28;;;20.70;99.90;;;;;;5031823;28;20044;-68
2023/07/11 06:18:53;;;;;;;5.88;2.13;;;20.80;99.90;;;;;;5032087;28;20026;-69
2023/07/11 06:21:18;;;;;;;5.47;1.88;;;21.00;99.90;;;;;;5030666;28;20156;-69
2023/07/11 06:23:44;;;;;;;5.75;1.83;;;21.00;99.90;;;;;;5031692;28;20086;-69
2023/07/11 06:26:10;;;;;;;4.95;2.10;;;21.20;99.80;;;;;;5032260;28;20018;-69
2023/07/11 06:28:36;;;;;;;6.55;1.88;;;21.20;99.60;;;;;;5031738;28;20053;-71
2023/07/11 06:31:02;;;;;;;4.57;1.75;;;21.30;99.50;;;;;;5031591;28;20056;-69
2023/07/11 06:33:29;;;;;;;7.43;1.90;;;21.40;99.00;;;;;;5030856;28;20065;-70
2023/07/11 06:35:55;;;;;;;6.15;1.67;;;21.50;99.00;;;;;;5031438;28;20033;-70
2023/07/11 06:38:22;;;;;;;10.23;2.35;;;21.50;98.50;;;;;;5032004;28;20049;-68
2023/07/11 06:40:49;;;;;;;5.07;1.80;;;21.60;98.40;;;;;;5031379;28;20030;-68
2023/07/11 06:43:16;;;;;;;8.55;2.10;;;21.70;98.40;;;;;;5031555;28;20334;-69
2023/07/11 06:45:45;;;;;;;4.50;1.92;;;21.70;98.50;;;;;;5030443;28;20410;-69
2023/07/11 06:48:10;;;;;;;8.45;2.50;;;21.80;98.50;;;;;;5031019;28;20029;-69
2023/07/11 06:50:36;;;;;;;4.25;1.73;;;21.80;98.30;;;;;;5031127;28;20036;-69
2023/07/11 06:53:02;;;;;;;9.38;2.00;;;21.90;98.50;;;;;;5031463;28;20462;-69
2023/07/11 06:55:27;;;;;;;5.40;1.90;;;22.00;98.40;;;;;;5031250;28;20090;-71
2023/07/11 06:57:53;;;;;;;10.90;4.53;;;22.10;98.50;;;;;;5031366;28;20091;-71
2023/07/11 07:00:19;;;;;;;7.97;3.10;;;22.10;98.10;;;;;;5029758;28;20330;-69
2023/07/11 07:02:44;;;;;;;8.13;2.33;;;22.20;98.00;;;;;;5030851;28;20101;-69
2023/07/11 07:05:10;;;;;;;10.38;2.13;;;22.30;97.90;;;;;;5031200;28;20022;-70
2023/07/11 07:07:36;;;;;;;5.15;1.88;;;22.50;97.80;;;;;;5030948;28;20034;-70
2023/07/11 07:10:02;;;;;;;7.75;2.30;;;22.60;97.80;;;;;;5030730;28;20426;-70
2023/07/11 07:12:27;;;;;;;7.65;1.83;;;22.60;97.70;;;;;;5030819;28;20030;-70
2023/07/11 07:14:53;;;;;;;6.25;2.58;;;22.70;97.70;;;;;;5030643;28;20176;-69
2023/07/11 07:17:19;;;;;;;10.05;2.22;;;22.90;97.60;;;;;;5046659;28;20033;-70
2023/07/11 07:19:45;;;;;;;5.85;2.53;;;22.90;97.20;;;;;;5031312;28;20026;-70
2023/07/11 07:22:11;;;;;;;7.18;2.05;;;23.00;97.00;;;;;;5030788;28;20033;-70
2023/07/11 07:24:37;;;;;;;5.47;2.28;;;23.10;96.90;;;;;;5030562;28;20464;-69
2023/07/11 07:27:03;;;;;;;4.65;2.00;;;23.10;96.80;;;;;;5030452;28;20093;-70
2023/07/11 07:29:29;;;;;;;6.55;1.90;;;23.20;96.70;;;;;;5030383;28;20092;-69
2023/07/11 07:31:54;;;;;;;5.13;2.22;;;23.40;96.60;;;;;;5030916;28;20021;-70
2023/07/11 07:34:20;;;;;;;6.63;2.40;;;23.40;96.50;;;;;;5045833;28;20037;-70
2023/07/11 07:36:46;;;;;;;11.15;2.38;;;23.50;96.50;;;;;;5046104;28;20037;-70
2023/07/11 07:39:11;;;;;;;9.82;2.30;;;23.60;96.60;;;;;;5030350;28;20116;-70
2023/07/11 07:41:37;;;;;;;9.98;2.00;;;23.70;96.70;;;;;;5030551;28;20022;-70
2023/07/11 07:44:03;;;;;;;9.68;2.50;;;23.70;96.70;;;;;;5030699;28;20049;-70
2023/07/11 07:46:29;;;;;;;6.75;2.22;;;23.90;96.30;;;;;;5030014;28;20039;-71
2023/07/11 07:48:54;;;;;;;7.47;1.88;;;24.00;96.10;;;;;;5030212;28;20034;-71
2023/07/11 07:51:20;;;;;;;7.97;2.17;;;24.20;96.40;;;;;;5029321;28;20029;-71
2023/07/11 07:53:46;;;;;;;12.00;2.78;;;24.40;95.50;;;;;;5030350;28;20471;-71
2023/07/11 07:56:19;;;;;;;7.22;3.67;;;24.90;95.40;;;;;;5030873;28;20108;-71
2023/07/11 07:58:46;;;;;;;4.82;2.28;;;25.20;95.10;;;;;;5030538;28;20048;-72
2023/07/11 08:01:15;;;;;;;6.53;2.67;;;25.40;94.40;;;;;;5028953;28;20045;-72
2023/07/11 08:03:41;;;;;;;3.30;2.00;;;25.60;94.20;;;;;;5030252;28;20081;-70
2023/07/11 08:06:08;;;;;;;5.60;2.72;;;25.80;94.40;;;;;;5030308;28;20030;-73
2023/07/11 08:08:34;;;;;;;7.97;2.70;;;26.00;93.40;;;;;;5030020;28;20030;-71
2023/07/11 08:11:01;;;;;;;8.88;3.00;;;26.00;93.20;;;;;;5030637;28;20025;-70
2023/07/11 08:13:27;;;;;;;7.57;2.42;;;26.00;93.00;;;;;;5030134;28;20095;-71
2023/07/11 08:15:53;;;;;;;4.63;2.55;;;26.00;92.80;;;;;;5030299;28;20376;-71
2023/07/11 08:18:19;;;;;;;8.57;2.03;;;26.10;92.70;;;;;;5029019;28;20029;-71
2023/07/11 08:20:44;;;;;;;6.22;2.20;;;26.30;92.60;;;;;;5030126;28;20013;-71
2023/07/11 08:23:10;;;;;;;5.13;2.33;;;26.30;92.40;;;;;;5045827;28;20463;-71
2023/07/11 08:25:36;;;;;;;4.65;1.92;;;26.50;92.70;;;;;;5030229;28;20029;-72
2023/07/11 08:28:04;;;;;;;5.38;2.35;;;26.70;92.00;;;;;;5030333;28;20111;-71
2023/07/11 08:30:33;;;;;;;4.13;2.13;;;26.90;91.70;;;;;;5029823;28;20034;-71
2023/07/11 08:32:59;;;;;;;3.30;2.22;;;27.20;91.00;;;;;;5029609;28;20033;-73
2023/07/11 08:35:25;;;;;;;7.97;3.15;;;27.70;89.90;;;;;;5029483;28;20440;-71
2023/07/11 08:37:51;;;;;;;4.22;2.33;;;28.20;88.60;;;;;;5029838;28;20048;-72
2023/07/11 08:40:21;;;;;;;6.10;2.20;;;29.10;86.70;;;;;;5028769;28;20034;-72
2023/07/11 08:42:48;;;;;;;5.80;2.35;;;30.00;87.20;;;;;;5029748;28;20545;-71
2023/07/11 08:45:24;;;;;;;5.60;2.03;;;30.90;84.00;;;;;;5029627;28;20038;-71
2023/07/11 08:48:01;;;;;;;2.78;1.77;;;31.60;81.40;;;;;;5029821;28;20045;-70
2023/07/11 08:50:35;;;;;;;2.78;1.90;;;32.20;77.50;;;;;;5029653;28;20025;-71
2023/07/11 08:53:29;;;;;;;8.90;2.47;;;32.70;75.20;;;;;;5045833;28;20034;-71
2023/07/11 08:55:58;;;;;;;3.33;2.42;;;33.60;75.30;;;;;;5029811;28;20038;-71
2023/07/11 08:58:33;;;;;;;5.25;2.67;;;34.30;69.70;;;;;;5033177;28;20060;-72
2023/07/11 09:01:02;;;;;;;5.28;2.60;;;34.70;69.70;;;;;;5033558;28;20071;-72
2023/07/11 09:03:32;;;;;;;4.68;2.60;;;35.20;69.30;;;;;;5048788;28;20171;-72
2023/07/11 09:06:01;;;;;;;6.18;3.05;;;35.10;64.60;;;;;;5033133;28;20040;-72
2023/07/11 09:08:28;;;;;;;8.52;3.80;;;35.10;66.00;;;;;;5033393;28;20037;-71
2023/07/11 09:11:34;;;;;;;5.50;2.20;;;35.70;64.40;;;;;;5034176;28;20014;-71
2023/07/11 09:14:25;;;;;;;4.75;2.25;;;35.80;62.80;;;;;;5033572;28;20372;-72
2023/07/11 09:17:24;;;;;;;5.25;2.53;;;36.10;62.60;;;;;;5033587;28;20049;-71
2023/07/11 09:20:20;;;;;;;8.52;2.28;;;35.90;62.60;;;;;;5032914;28;20125;-70
2023/07/11 09:23:01;;;;;;;5.63;2.30;;;35.40;60.60;;;;;;5033062;28;20057;-72
2023/07/11 09:25:35;;;;;;;3.17;1.90;;;35.70;60.40;;;;;;5032846;28;20038;-71
2023/07/11 09:28:23;;;;;;;3.22;2.30;;;35.60;57.20;;;;;;5032125;28;20039;-72
2023/07/11 09:30:57;;;;;;;8.55;3.00;;;35.40;57.50;;;;;;5032966;28;20045;-71
2023/07/11 09:33:26;;;;;;;4.05;1.98;;;35.30;57.80;;;;;;5032491;28;20180;-72
2023/07/11 09:35:52;;;;;;;3.63;2.50;;;34.90;58.70;;;;;;5032569;28;20026;-72
2023/07/11 09:38:56;;;;;;;3.03;2.00;;;34.30;58.10;;;;;;5033386;28;20018;-72
2023/07/11 09:41:50;;;;;;;3.08;2.17;;;33.60;59.80;;;;;;5010450;28;20081;-73
2023/07/11 09:44:16;;;;;;;6.38;2.70;;;33.50;61.80;;;;;;5031483;28;20353;-71
2023/07/11 09:46:41;;;;;;;5.30;2.78;;;33.30;60.90;;;;;;5047999;28;20110;-72
2023/07/11 09:49:17;;;;;;;4.05;2.40;;;33.10;61.50;;;;;;5031385;28;20371;-72
2023/07/11 09:51:53;;;;;;;7.95;2.25;;;33.00;61.40;;;;;;5032575;28;20025;-71
2023/07/11 09:54:21;;;;;;;4.18;2.58;;;32.40;61.60;;;;;;5032559;28;20064;-72
2023/07/11 09:56:48;;;;;;;4.88;2.10;;;32.00;62.70;;;;;;5032483;28;20074;-72
2023/07/11 09:59:14;;;;;;;6.80;2.53;;;31.90;63.10;;;;;;5031722;28;20059;-71
2023/07/11 10:01:40;;;;;;;4.75;2.65;;;31.80;62.60;;;;;;5032548;28;20064;-71
2023/07/11 10:04:09;;;;;;;6.57;2.45;;;31.80;63.20;;;;;;5032574;28;20119;-71
2023/07/11 10:06:39;;;;;;;4.78;2.90;;;31.80;63.00;;;;;;5032228;28;20105;-72
2023/07/11 10:09:31;;;;;;;6.72;3.15;;;31.80;62.70;;;;;;5030220;28;20098;-72
2023/07/11 10:12:11;;;;;;;7.05;3.40;;;31.90;63.60;;;;;;5032001;28;20033;-72
2023/07/11 10:14:43;;;;;;;6.55;2.67;;;31.70;63.30;;;;;;5032248;28;20124;-71
2023/07/11 10:17:18;;;;;;;5.60;3.65;;;31.40;63.60;;;;;;5032477;28;20026;-71
2023/07/11 10:19:53;;;;;;;7.60;3.05;;;31.40;63.70;;;;;;5032037;28;20034;-70
2023/07/11 10:22:26;;;;;;;3.65;2.78;;;31.40;64.50;;;;;;5031822;28;20037;-71
2023/07/11 10:25:02;;;;;;;4.65;2.95;;;31.40;64.50;;;;;;5031603;28;20045;-72
2023/07/11 10:27:35;;;;;;;4.80;3.00;;;31.30;64.90;;;;;;5047268;28;20477;-72
2023/07/11 10:30:03;;;;;;;7.93;3.58;;;31.30;65.30;;;;;;5032002;28;20041;-72
2023/07/11 10:32:38;;;;;;;4.38;3.08;;;31.20;65.10;;;;;;5031847;28;20363;-72
2023/07/11 10:35:11;;;;;;;4.50;3.00;;;31.10;66.30;;;;;;5032047;28;20148;-72
2023/07/11 10:37:58;;;;;;;4.22;2.80;;;31.10;65.70;;;;;;5031801;28;20108;-72
2023/07/11 10:40:30;;;;;;;6.93;3.60;;;31.20;66.30;;;;;;5031326;28;20545;-72
2023/07/11 10:43:10;;;;;;;7.65;3.20;;;31.20;65.60;;;;;;5031479;28;20037;-71
2023/07/11 10:45:40;;;;;;;5.82;3.30;;;31.20;66.00;;;;;;5031603;28;20490;-71
2023/07/11 10:48:06;;;;;;;6.13;3.08;;;31.20;66.00;;;;;;5046733;28;20439;-72
2023/07/11 10:50:38;;;;;;;5.45;3.45;;;31.20;66.40;;;;;;5046920;28;20036;-72
2023/07/11 10:53:31;;;;;;;5.82;3.72;;;31.30;67.60;;;;;;5031987;28;20029;-71
2023/07/11 10:56:05;;;;;;;5.50;3.28;;;31.40;67.40;;;;;;5011567;28;20124;-72
2023/07/11 10:58:32;;;;;;;6.88;3.65;;;31.30;66.70;;;;;;5028449;28;20430;-72
2023/07/11 11:00:58;;;;;;;4.60;3.15;;;31.20;67.30;;;;;;5030991;28;20403;-72
2023/07/11 11:03:29;;;;;;;4.90;3.28;;;31.20;67.50;;;;;;5031256;28;20475;-72
2023/07/11 11:06:00;;;;;;;5.95;3.30;;;31.10;67.30;;;;;;5030945;28;20040;-73
2023/07/11 11:08:55;;;;;;;5.30;3.47;;;31.20;67.70;;;;;;5031444;28;20067;-71
2023/07/11 11:12:04;;;;;;;6.03;3.38;;;31.30;67.60;;;;;;5022667;28;20634;-72
2023/07/11 11:14:48;;;;;;;4.47;3.22;;;31.10;67.60;;;;;;5031044;28;20059;-71
2023/07/11 11:17:29;;;;;;;5.53;3.65;;;31.20;67.40;;;;;;5046655;28;20024;-72
2023/07/11 11:20:13;;;;;;;9.45;3.13;;;31.20;67.60;;;;;;5063141;28;20371;-73
2023/07/11 11:23:05;;;;;;;5.90;3.70;;;31.10;68.00;;;;;;5030639;28;20042;-71
2023/07/11 11:25:50;;;;;;;7.18;3.78;;;31.10;67.90;;;;;;5029569;28;20488;-71
2023/07/11 11:28:26;;;;;;;4.38;3.00;;;31.00;68.60;;;;;;5029565;28;20030;-71
2023/07/11 11:30:58;;;;;;;5.10;3.00;;;31.00;67.90;;;;;;5030617;28;20045;-71
2023/07/11 11:33:51;;;;;;;6.32;3.58;;;30.90;68.40;;;;;;5030410;28;20075;-70
2023/07/11 11:36:37;;;;;;;4.43;3.65;;;30.90;68.90;;;;;;5030590;28;20359;-71
2023/07/11 11:39:11;;;;;;;9.30;3.50;;;31.00;68.60;;;;;;5046165;28;20037;-72
2023/07/11 11:41:46;;;;;;;3.97;3.30;;;31.00;69.00;;;;;;5030467;28;20359;-71
2023/07/11 11:44:21;;;;;;;6.93;4.45;;;30.80;68.80;;;;;;5030976;28;20072;-71
2023/07/11 11:46:49;;;;;;;8.05;4.10;;;30.80;69.40;;;;;;5030446;28;20033;-71
2023/07/11 11:49:16;;;;;;;5.45;3.75;;;30.80;69.50;;;;;;5030512;28;20064;-72
2023/07/11 11:51:44;;;;;;;5.65;3.58;;;30.90;69.10;;;;;;5030449;28;20124;-72
2023/07/11 11:54:12;;;;;;;7.85;3.42;;;30.80;68.80;;;;;;5030313;28;20033;-71
2023/07/11 11:56:44;;;;;;;5.45;3.45;;;31.00;69.00;;;;;;5045811;28;20017;-71
2023/07/11 11:59:17;;;;;;;6.03;3.72;;;31.10;69.30;;;;;;5030540;28;20029;-73
2023/07/11 12:02:01;;;;;;;7.30;4.13;;;31.10;69.00;;;;;;5030404;28;20037;-72
2023/07/11 12:04:30;;;;;;;7.40;3.63;;;31.20;68.70;;;;;;5030329;28;20124;-70
2023/07/11 12:07:23;;;;;;;7.30;4.10;;;31.20;68.90;;;;;;5030343;28;20040;-72
2023/07/11 12:10:12;;;;;;;9.02;3.30;;;31.10;69.00;;;;;;5028113;28;20038;-71
2023/07/11 12:12:37;;;;;;;8.27;3.80;;;31.00;69.10;;;;;;5030141;28;20057;-72
2023/07/11 12:15:12;;;;;;;8.07;3.95;;;31.00;69.30;;;;;;5030223;28;20590;-72
2023/07/11 12:17:38;;;;;;;9.77;4.30;;;31.10;70.00;;;;;;5030119;28;20108;-71
2023/07/11 12:20:12;;;;;;;4.93;3.42;;;31.00;69.50;;;;;;5046003;28;20036;-72
2023/07/11 12:22:38;;;;;;;7.07;4.07;;;31.00;69.50;;;;;;5029728;28;20037;-71
2023/07/11 12:25:06;;;;;;;6.78;3.75;;;30.80;70.00;;;;;;5030013;28;20103;-71
2023/07/11 12:27:35;;;;;;;6.13;3.85;;;30.80;70.60;;;;;;5030007;28;20044;-70
2023/07/11 12:30:01;;;;;;;5.47;3.85;;;30.80;70.20;;;;;;5030075;28;20444;-71
2023/07/11 12:32:33;;;;;;;6.87;3.57;;;30.80;70.40;;;;;;5032210;28;20336;-72
2023/07/11 12:35:05;;;;;;;6.95;3.85;;;30.90;70.30;;;;;;5034217;28;20072;-71
2023/07/11 12:38:01;;;;;;;8.00;3.97;;;30.90;69.70;;;;;;5033684;28;20037;-71
2023/07/11 12:40:39;;;;;;;8.57;5.07;;;31.00;69.50;;;;;;5033736;28;20056;-71
2023/07/11 12:43:33;;;;;;;6.80;4.47;;;31.20;69.80;;;;;;5033856;28;20105;-72
2023/07/11 12:46:12;;;;;;;6.10;3.90;;;31.00;67.80;;;;;;5030628;28;20086;-73
2023/07/11 12:48:43;;;;;;;7.65;3.97;;;30.90;66.40;;;;;;5034010;28;20022;-72
2023/07/11 12:51:37;;;;;;;10.88;4.28;;;30.80;67.40;;;;;;5034470;28;20026;-72
2023/07/11 12:54:20;;;;;;;7.47;3.72;;;30.70;67.90;;;;;;5034668;28;20360;-71
2023/07/11 12:56:51;;;;;;;5.82;4.40;;;30.60;68.30;;;;;;5032753;28;20160;-73